Stella Prima — PHEA — position and weather

sailwx.info

Track history (hours):
 
Tides and Currents Weather Stations Pressure Air Temp Water Temp Dewpoint Dewpoint Depression Visibility Wind Speed Wind Dir Waves Ship Positions

Stella Prima

Last reported at 2018-Jan-22 04:30 UTC. Time now 2018-Jan-22 04:34 UTC.
Position N 53°59' E 007°50'.

Length 100 m; beam 21 m.

Type: Cargo ship. MMSI: 246460000.

Date/timePositionNaut miles runAvg speedWind from/ knotsBaromVisibWave heightAir tempDewpointWater temp
2018-Jan-22 04:30N 53°59' E 007°50'2 3.1
2018-Jan-22 04:00N 54°00' E 007°48'0 0.4
2018-Jan-22 03:30N 54°00' E 007°48'1 1.5
2018-Jan-22 02:59N 54°01' E 007°47'0 0.7
2018-Jan-22 02:30N 54°01' E 007°48'0 0.9
2018-Jan-22 02:00N 54°01' E 007°48'1 2.8
2018-Jan-22 01:30N 53°60' E 007°50'2 3.3
2018-Jan-22 01:00N 53°58' E 007°50'8512.8
2018-Jan-21 18:19N 53°35' E 005°31'411.6
2018-Jan-21 18:00N 53°33' E 005°25'611.3
2018-Jan-21 17:30N 53°31' E 005°16'611.2
2018-Jan-21 17:00N 53°29' E 005°08'611.2
2018-Jan-21 16:30N 53°27' E 004°59'611.4
2018-Jan-21 16:00N 53°25' E 004°50'610.8
2018-Jan-21 15:30N 53°22' E 004°43'1211.0
2018-Jan-21 14:22N 53°11' E 004°32'410.9
2018-Jan-21 13:58N 53°07' E 004°29'510.8
2018-Jan-21 13:30N 53°03' E 004°25'510.8
2018-Jan-21 12:59N 52°58' E 004°21'510.8
2018-Jan-21 12:30N 52°53' E 004°17'2410.5
2018-Jan-21 10:15N 52°35' E 003°52'710.9
2018-Jan-21 09:36N 52°30' E 003°43'411.2
2018-Jan-21 09:14N 52°27' E 003°38'6112.3
2018-Jan-21 04:17N 51°43' E 002°31'513.0
2018-Jan-21 03:55N 51°39' E 002°26'613.1
2018-Jan-21 03:28N 51°34' E 002°21'612.8
2018-Jan-21 02:58N 51°28' E 002°16'612.4
2018-Jan-21 02:30N 51°23' E 002°12'612.6
2018-Jan-21 02:00N 51°18' E 002°07'612.4
2018-Jan-21 01:30N 51°13' E 002°01'612.8
2018-Jan-21 01:00N 51°10' E 001°52'612.2
2018-Jan-21 00:30N 51°06' E 001°44'611.4
2018-Jan-21 00:00N 51°02' E 001°38'610.9
2018-Jan-20 23:29N 50°58' E 001°32'510.1
2018-Jan-20 23:00N 50°54' E 001°27'7 8.9
2018-Jan-20 22:13N 50°47' E 001°23'42 9.4
2018-Jan-20 17:46N 50°25' E 000°28'310.6
2018-Jan-20 17:28N 50°24' E 000°23'510.4
2018-Jan-20 17:00N 50°23' E 000°16'510.6
2018-Jan-20 16:30N 50°21' E 000°08'510.8
2018-Jan-20 16:00N 50°20' W 000°01'510.9
2018-Jan-20 15:30N 50°19' W 000°09'10313.6
2018-Jan-20 07:56N 49°51' W 002°44'614.0
2018-Jan-20 07:31N 49°50' W 002°53'1013.6
2018-Jan-20 06:44N 49°50' W 003°09'413.5
2018-Jan-20 06:28N 49°50' W 003°14'612.8
2018-Jan-20 06:00N 49°53' W 003°22'611.9
2018-Jan-20 05:29N 49°56' W 003°31'511.2
2018-Jan-20 05:00N 49°57' W 003°39'810.4
2018-Jan-20 04:15N 49°58' W 003°51'310.2
2018-Jan-20 03:58N 49°59' W 003°55'510.2
2018-Jan-20 03:30N 49°59' W 004°03'510.3
2018-Jan-20 03:00N 50°00' W 004°11'510.2
2018-Jan-20 02:30N 50°01' W 004°18'510.3
2018-Jan-20 02:00N 50°03' W 004°26'510.6
2018-Jan-20 01:30N 50°04' W 004°34'510.9
2018-Jan-20 01:00N 50°05' W 004°42'611.2
2018-Jan-20 00:30N 50°06' W 004°51'611.4
2018-Jan-20 00:00N 50°07' W 004°60'2 3.6
2018-Jan-19 23:25N 50°07' W 005°03'0 0.0
2018-Jan-19 22:55N 50°07' W 005°03'0 0.0
2018-Jan-19 22:14N 50°07' W 005°03'0 0.0
2018-Jan-19 22:00N 50°07' W 005°03'0 0.0
2018-Jan-19 21:30N 50°07' W 005°03'0 0.0
2018-Jan-19 21:00N 50°07' W 005°03'0 0.0
2018-Jan-19 20:30N 50°07' W 005°03'1 1.4
2018-Jan-19 20:00N 50°07' W 005°02'4 8.5
2018-Jan-19 19:30N 50°03' W 005°01'713.5
2018-Jan-19 19:00N 49°57' W 005°06'  
Track history (hours):
 
Tides and Currents Weather Stations Pressure Air Temp Water Temp Dewpoint Dewpoint Depression Visibility Wind Speed Wind Dir Waves Ship Positions

Stella Prima

Last reported at 2018-Jan-22 04:30 UTC. Time now 2018-Jan-22 04:34 UTC.
Position N 53°59' E 007°50'.

Length 100 m; beam 21 m.

Type: Cargo ship. MMSI: 246460000.

Date/timePositionNaut miles runAvg speedWind from/ knotsBaromVisibWave heightAir tempDewpointWater temp
2018-Jan-22 04:30N 53°59' E 007°50'2 3.1
2018-Jan-22 04:00N 54°00' E 007°48'0 0.4
2018-Jan-22 03:30N 54°00' E 007°48'1 1.5
2018-Jan-22 02:59N 54°01' E 007°47'0 0.7
2018-Jan-22 02:30N 54°01' E 007°48'0 0.9
2018-Jan-22 02:00N 54°01' E 007°48'1 2.8
2018-Jan-22 01:30N 53°60' E 007°50'2 3.3
2018-Jan-22 01:00N 53°58' E 007°50'8512.8
2018-Jan-21 18:19N 53°35' E 005°31'411.6
2018-Jan-21 18:00N 53°33' E 005°25'611.3
2018-Jan-21 17:30N 53°31' E 005°16'611.2
2018-Jan-21 17:00N 53°29' E 005°08'611.2
2018-Jan-21 16:30N 53°27' E 004°59'611.4
2018-Jan-21 16:00N 53°25' E 004°50'610.8
2018-Jan-21 15:30N 53°22' E 004°43'1211.0
2018-Jan-21 14:22N 53°11' E 004°32'410.9
2018-Jan-21 13:58N 53°07' E 004°29'510.8
2018-Jan-21 13:30N 53°03' E 004°25'510.8
2018-Jan-21 12:59N 52°58' E 004°21'510.8
2018-Jan-21 12:30N 52°53' E 004°17'2410.5
2018-Jan-21 10:15N 52°35' E 003°52'710.9
2018-Jan-21 09:36N 52°30' E 003°43'411.2
2018-Jan-21 09:14N 52°27' E 003°38'6112.3
2018-Jan-21 04:17N 51°43' E 002°31'513.0
2018-Jan-21 03:55N 51°39' E 002°26'613.1
2018-Jan-21 03:28N 51°34' E 002°21'612.8
2018-Jan-21 02:58N 51°28' E 002°16'612.4
2018-Jan-21 02:30N 51°23' E 002°12'612.6
2018-Jan-21 02:00N 51°18' E 002°07'612.4
2018-Jan-21 01:30N 51°13' E 002°01'612.8
2018-Jan-21 01:00N 51°10' E 001°52'612.2
2018-Jan-21 00:30N 51°06' E 001°44'611.4
2018-Jan-21 00:00N 51°02' E 001°38'610.9
2018-Jan-20 23:29N 50°58' E 001°32'510.1
2018-Jan-20 23:00N 50°54' E 001°27'7 8.9
2018-Jan-20 22:13N 50°47' E 001°23'42 9.4
2018-Jan-20 17:46N 50°25' E 000°28'310.6
2018-Jan-20 17:28N 50°24' E 000°23'510.4
2018-Jan-20 17:00N 50°23' E 000°16'510.6
2018-Jan-20 16:30N 50°21' E 000°08'510.8
2018-Jan-20 16:00N 50°20' W 000°01'510.9
2018-Jan-20 15:30N 50°19' W 000°09'10313.6
2018-Jan-20 07:56N 49°51' W 002°44'614.0
2018-Jan-20 07:31N 49°50' W 002°53'1013.6
2018-Jan-20 06:44N 49°50' W 003°09'413.5
2018-Jan-20 06:28N 49°50' W 003°14'612.8
2018-Jan-20 06:00N 49°53' W 003°22'611.9
2018-Jan-20 05:29N 49°56' W 003°31'511.2
2018-Jan-20 05:00N 49°57' W 003°39'810.4
2018-Jan-20 04:15N 49°58' W 003°51'310.2
2018-Jan-20 03:58N 49°59' W 003°55'510.2
2018-Jan-20 03:30N 49°59' W 004°03'510.3
2018-Jan-20 03:00N 50°00' W 004°11'510.2
2018-Jan-20 02:30N 50°01' W 004°18'510.3
2018-Jan-20 02:00N 50°03' W 004°26'510.6
2018-Jan-20 01:30N 50°04' W 004°34'510.9
2018-Jan-20 01:00N 50°05' W 004°42'611.2
2018-Jan-20 00:30N 50°06' W 004°51'611.4
2018-Jan-20 00:00N 50°07' W 004°60'2 3.6
2018-Jan-19 23:25N 50°07' W 005°03'0 0.0
2018-Jan-19 22:55N 50°07' W 005°03'0 0.0
2018-Jan-19 22:14N 50°07' W 005°03'0 0.0
2018-Jan-19 22:00N 50°07' W 005°03'0 0.0
2018-Jan-19 21:30N 50°07' W 005°03'0 0.0
2018-Jan-19 21:00N 50°07' W 005°03'0 0.0
2018-Jan-19 20:30N 50°07' W 005°03'1 1.4
2018-Jan-19 20:00N 50°07' W 005°02'4 8.5
2018-Jan-19 19:30N 50°03' W 005°01'713.5
2018-Jan-19 19:00N 49°57' W 005°06'  

Dump ship's entire track history